SBOSBO TLV / LLBG
Speedbird OnlineSpeedbird Online TLV / LLBG

Ben Gurion International Airport
19:21 30.3°C

Location Tel Aviv, Israel
Latitude: 32.01139831542969
Longitude: 34.88669967651367
Local Time 19:21 on 17 Apr 2024
UTC +3 hours (Asia/Jerusalem)
Currency £1 equals ILS 4.68
METAR LLBG 171550Z 04005KT CAVOK 31/05 Q1007 NOSIG
TAF TAF LLBG 171105Z 1712/1812 32010KT CAVOK BECMG 1714/1716 VRB04KT BECMG 1802/1804 19012KT 7000 PROB40 TEMPO 1804/1806 5000 HZ BECMG 1806/1808 26014KT PROB30 1811/1812 9999 SCT015 TX34/1712Z TN21/1803Z
Weather As Of 17 Apr 2024 19:21
Description Clear sky
Wind 9 km/h from North-East (40°)
Cloud Cover 0%
Precipitation Rain: none, Snow: none
Sunrise 06:08
Sunset 19:10
NOTAM 28 active NOTAM
Rebooking Israel Security Incident 29NOV23 - Customer guidelines
Rotations During the last 90 days there were
9 flights from LCA
8 flights to LHR
Lounges Dan Lounge E , International
Dan Lounges B/C , International
Web Airport Website | Wikipedia
Codes IATA: TLV
ICAO: LLBG
Altitude 41 Meter / 135 Feet
Distance 3,553 KM / 2,208 Miles
from London.
Runways
RunwayLength (m)Surface
032772Asphalt
084062Asphalt
123112Asphalt
212772Asphalt
264062Asphalt
303112Asphalt
Radio
TypeDescriptionFrequency
APPBen Gurion Approach120.5
ATISATIS132.5
CTRTel Aviv Control121.4
GNDBen Gurion Ground118.05
GNDBen Gurion Ground/Delivery129.2
TWRBen Gurion Tower134.6
Live ATC



Support Speedbird Online

© 2017-2024 Speedbird Online